createdAt,value
2023-02-01T00:00:48.098Z,2.83
2023-02-01T00:01:50.734Z,4.28
2023-02-01T00:02:53.308Z,2.80
2023-02-01T00:03:55.794Z,3.53
2023-02-01T00:04:58.413Z,3.10
2023-02-01T00:06:01.554Z,3.53
2023-02-01T00:07:04.180Z,2.42
2023-02-01T00:08:06.781Z,2.60
2023-02-01T00:09:09.341Z,3.88
2023-02-01T00:10:13.299Z,3.35
2023-02-01T00:11:16.061Z,2.45
2023-02-01T00:12:18.579Z,2.97
2023-02-01T00:13:21.098Z,2.97
2023-02-01T00:14:24.073Z,3.47
2023-02-01T00:15:26.745Z,3.33
2023-02-01T00:16:31.181Z,2.75
2023-02-01T00:17:33.707Z,3.50
2023-02-01T00:18:36.701Z,4.35
2023-02-01T00:19:39.350Z,3.17
2023-02-01T00:20:47.996Z,2.88
2023-02-01T00:21:50.522Z,2.30
2023-02-01T00:22:53.159Z,2.25
2023-02-01T00:23:56.147Z,3.28
2023-02-01T00:24:58.671Z,2.55
2023-02-01T00:26:08.527Z,2.67
2023-02-01T00:27:11.867Z,2.90
2023-02-01T00:28:14.398Z,3.65
2023-02-01T00:29:19.556Z,1.80
2023-02-01T00:30:22.406Z,3.05
2023-02-01T00:31:27.012Z,3.67
2023-02-01T00:32:32.882Z,5.05
2023-02-01T00:33:35.888Z,2.72
2023-02-01T00:34:38.647Z,3.42
2023-02-01T00:35:41.632Z,2.83
2023-02-01T00:36:45.112Z,2.33
2023-02-01T00:37:47.644Z,2.90
2023-02-01T00:38:50.279Z,3.13
2023-02-01T00:39:52.917Z,2.45
2023-02-01T00:40:55.923Z,2.38
2023-02-01T00:41:58.452Z,3.72
2023-02-01T00:43:01.561Z,2.20
2023-02-01T00:44:04.570Z,2.53
2023-02-01T00:45:07.690Z,3.67
2023-02-01T00:46:10.942Z,2.45
2023-02-01T00:47:13.465Z,4.07
2023-02-01T00:48:15.966Z,2.85
2023-02-01T00:49:18.608Z,3.10
2023-02-01T00:50:21.535Z,2.65
2023-02-01T00:51:27.732Z,2.30
2023-02-01T00:52:31.477Z,3.60
2023-02-01T00:53:34.698Z,2.40
2023-02-01T00:54:38.416Z,2.15
2023-02-01T00:55:41.062Z,2.80
2023-02-01T00:56:43.700Z,2.80
2023-02-01T00:57:46.347Z,3.05
2023-02-01T00:58:49.113Z,3.55
2023-02-01T00:59:51.755Z,3.03
2023-02-01T01:01:04.652Z,2.92
2023-02-01T01:02:07.495Z,3.30
2023-02-01T01:03:19.250Z,2.63
2023-02-01T01:04:21.995Z,4.78
2023-02-01T01:05:25.959Z,2.15
2023-02-01T01:06:34.842Z,2.58
2023-02-01T01:07:39.647Z,2.97
2023-02-01T01:08:43.142Z,2.53
2023-02-01T01:09:46.245Z,2.97
2023-02-01T01:10:50.683Z,3.20
2023-02-01T01:11:54.166Z,2.47
2023-02-01T01:12:57.289Z,2.20
2023-02-01T01:14:01.762Z,3.03
2023-02-01T01:15:05.333Z,2.58
2023-02-01T01:16:11.152Z,2.95
2023-02-01T01:17:14.335Z,2.85
2023-02-01T01:18:17.745Z,2.75
2023-02-01T01:19:20.826Z,3.42
2023-02-01T01:20:24.009Z,2.28
2023-02-01T01:21:27.917Z,2.35
2023-02-01T01:22:31.146Z,3.13
2023-02-01T01:23:34.628Z,3.15
2023-02-01T01:24:37.746Z,2.78
2023-02-01T01:25:41.235Z,2.78
2023-02-01T01:26:44.538Z,2.45
2023-02-01T01:27:47.711Z,2.80
2023-02-01T01:28:51.917Z,2.65
2023-02-01T01:29:55.155Z,2.47
2023-02-01T01:30:58.426Z,2.15
2023-02-01T01:32:01.761Z,2.53
2023-02-01T01:33:05.722Z,3.67
2023-02-01T01:34:10.282Z,4.70
2023-02-01T01:35:13.528Z,2.58
2023-02-01T01:36:16.887Z,3.05
2023-02-01T01:37:20.009Z,3.13
2023-02-01T01:38:23.610Z,4.55
2023-02-01T01:39:26.851Z,2.88
2023-02-01T01:40:31.179Z,2.17
2023-02-01T01:41:34.784Z,2.10
2023-02-01T01:42:47.495Z,2.67
2023-02-01T01:43:56.146Z,2.50
2023-02-01T01:45:02.514Z,3.03
2023-02-01T01:46:05.987Z,3.58
2023-02-01T01:47:09.720Z,2.30
2023-02-01T01:48:22.067Z,2.42
2023-02-01T01:49:27.952Z,2.35
2023-02-01T01:50:35.269Z,2.08
2023-02-01T01:51:45.773Z,3.58
2023-02-01T01:52:53.038Z,2.55
2023-02-01T01:54:03.477Z,2.40
2023-02-01T01:55:06.715Z,4.53
2023-02-01T01:56:09.608Z,3.28
2023-02-01T01:57:17.454Z,3.25
2023-02-01T01:58:25.247Z,2.90
2023-02-01T01:59:28.607Z,3.20
2023-02-01T02:00:31.469Z,2.55
2023-02-01T02:01:34.013Z,2.47
2023-02-01T02:02:38.339Z,2.22
2023-02-01T02:03:44.212Z,3.08
2023-02-01T02:04:48.173Z,2.50
2023-02-01T02:05:52.332Z,2.60
2023-02-01T02:07:03.895Z,2.20
2023-02-01T02:08:06.413Z,3.60
2023-02-01T02:09:09.058Z,2.55
2023-02-01T02:10:13.339Z,2.85
2023-02-01T02:11:18.422Z,3.40
2023-02-01T02:12:20.907Z,2.67
2023-02-01T02:13:24.181Z,4.47
2023-02-01T02:14:27.913Z,3.17
2023-02-01T02:15:32.464Z,3.72
2023-02-01T02:16:53.107Z,2.17
2023-02-01T02:18:21.034Z,2.85
2023-02-01T02:19:29.593Z,3.70
2023-02-01T02:21:16.742Z,2.10
2023-02-01T02:22:58.750Z,3.00
2023-02-01T02:24:10.275Z,2.40
2023-02-01T02:25:39.674Z,2.33
2023-02-01T02:26:57.559Z,1.80
2023-02-01T02:28:37.401Z,2.72
2023-02-01T02:29:49.154Z,2.72
2023-02-01T02:31:21.081Z,2.97
2023-02-01T02:32:48.555Z,2.95
2023-02-01T02:34:09.910Z,3.90
2023-02-01T02:35:30.931Z,3.42
2023-02-01T02:37:06.437Z,2.35
2023-02-01T02:38:23.969Z,3.13
2023-02-01T02:39:38.719Z,2.10
2023-02-01T02:40:46.877Z,1.80
2023-02-01T02:42:33.321Z,3.05
2023-02-01T02:44:17.117Z,3.08
2023-02-01T02:45:47.289Z,2.33
2023-02-01T02:47:10.766Z,2.50
2023-02-01T02:48:23.482Z,2.58
2023-02-01T02:50:14.504Z,2.85
2023-02-01T02:51:51.927Z,2.00
2023-02-01T02:53:33.341Z,2.67
2023-02-01T02:54:47.745Z,1.77
2023-02-01T02:55:53.493Z,2.47
2023-02-01T02:57:18.592Z,2.33
2023-02-01T02:58:41.501Z,2.33
2023-02-01T03:00:05.389Z,2.60
2023-02-01T03:01:28.489Z,2.55
2023-02-01T03:02:50.414Z,2.85
2023-02-01T03:04:11.275Z,3.38
2023-02-01T03:06:19.959Z,3.10
2023-02-01T03:07:52.078Z,3.50
2023-02-01T03:08:59.762Z,2.60
2023-02-01T03:10:09.018Z,2.55
2023-02-01T03:11:15.001Z,2.83
2023-02-01T03:12:57.732Z,2.92
2023-02-01T03:14:07.806Z,2.97
2023-02-01T03:15:14.169Z,4.35
2023-02-01T03:16:37.537Z,2.13
2023-02-01T03:17:44.771Z,2.28
2023-02-01T03:18:57.143Z,3.30
2023-02-01T03:20:04.773Z,3.55
2023-02-01T03:21:17.659Z,2.45
2023-02-01T03:22:25.938Z,2.65
2023-02-01T03:23:35.544Z,2.40
2023-02-01T03:24:50.423Z,2.53
2023-02-01T03:25:57.863Z,2.40
2023-02-01T03:27:10.349Z,3.78
2023-02-01T03:28:13.596Z,2.05
2023-02-01T03:29:23.070Z,3.10
2023-02-01T03:30:33.168Z,3.05
2023-02-01T03:31:36.536Z,2.83
2023-02-01T03:33:01.854Z,3.20
2023-02-01T03:34:10.117Z,3.00
2023-02-01T03:35:13.722Z,2.80
2023-02-01T03:36:31.964Z,2.60
2023-02-01T03:37:36.049Z,2.45
2023-02-01T03:39:17.937Z,3.10
2023-02-01T03:40:22.464Z,2.75
2023-02-01T03:41:51.049Z,2.92
2023-02-01T03:42:58.011Z,2.42
2023-02-01T03:44:20.818Z,2.35
2023-02-01T03:45:43.915Z,2.20
2023-02-01T03:46:59.218Z,2.35
2023-02-01T03:48:05.221Z,2.80
2023-02-01T03:49:12.542Z,4.07
2023-02-01T03:50:19.025Z,2.40
2023-02-01T03:51:23.466Z,2.25
2023-02-01T03:52:48.309Z,2.80
2023-02-01T03:53:54.791Z,2.67
2023-02-01T03:54:58.928Z,4.47
2023-02-01T03:56:01.567Z,3.80
2023-02-01T03:57:11.234Z,2.85
2023-02-01T03:58:18.917Z,2.33
2023-02-01T03:59:21.850Z,2.65
2023-02-01T04:00:27.246Z,2.58
2023-02-01T04:01:32.353Z,2.78
2023-02-01T04:02:35.918Z,3.53
2023-02-01T04:03:38.771Z,2.75
2023-02-01T04:04:41.609Z,3.50
2023-02-01T04:05:44.533Z,3.28
2023-02-01T04:06:48.976Z,3.97
2023-02-01T04:07:51.616Z,1.88
2023-02-01T04:08:54.213Z,2.97
2023-02-01T04:09:56.780Z,2.83
2023-02-01T04:10:59.302Z,2.53
2023-02-01T04:12:02.177Z,2.30
2023-02-01T04:13:04.818Z,3.45
2023-02-01T04:14:07.663Z,3.08
2023-02-01T04:15:10.818Z,2.38
2023-02-01T04:16:13.394Z,2.95
2023-02-01T04:17:15.991Z,2.88
2023-02-01T04:18:18.526Z,2.45
2023-02-01T04:19:21.141Z,1.77
2023-02-01T04:20:24.257Z,3.85
2023-02-01T04:21:27.835Z,3.03
2023-02-01T04:22:30.840Z,4.25
2023-02-01T04:23:33.388Z,3.17
2023-02-01T04:24:36.151Z,3.15
2023-02-01T04:25:38.669Z,2.42
2023-02-01T04:26:41.219Z,2.72
2023-02-01T04:27:44.427Z,2.75
2023-02-01T04:28:50.414Z,2.90
2023-02-01T04:29:53.068Z,3.08
2023-02-01T04:30:55.657Z,3.33
2023-02-01T04:31:58.232Z,3.88
2023-02-01T04:33:00.883Z,2.63
2023-02-01T04:34:03.767Z,2.35
2023-02-01T04:35:07.956Z,1.90
2023-02-01T04:36:10.838Z,3.03
2023-02-01T04:37:13.478Z,2.63
2023-02-01T04:38:15.997Z,2.33
2023-02-01T04:39:18.518Z,3.20
2023-02-01T04:40:21.475Z,3.13
2023-02-01T04:41:24.180Z,3.97
2023-02-01T04:42:26.925Z,3.58
2023-02-01T04:43:29.558Z,2.38
2023-02-01T04:44:32.079Z,3.13
2023-02-01T04:45:34.602Z,2.40
2023-02-01T04:46:37.125Z,1.95
2023-02-01T04:47:40.245Z,2.05
2023-02-01T04:48:43.365Z,2.50
2023-02-01T04:49:45.901Z,2.03
2023-02-01T04:50:50.102Z,3.03
2023-02-01T04:51:52.607Z,2.78
2023-02-01T04:52:55.126Z,2.88
2023-02-01T04:53:57.771Z,2.55
2023-02-01T04:55:01.130Z,3.30
2023-02-01T04:56:03.782Z,1.98
2023-02-01T04:57:06.292Z,3.08
2023-02-01T04:58:08.938Z,2.03
2023-02-01T04:59:13.018Z,3.03
2023-02-01T05:00:16.027Z,2.25
2023-02-01T05:01:18.679Z,2.50
2023-02-01T05:02:21.189Z,1.95
2023-02-01T05:03:23.720Z,3.35
2023-02-01T05:04:26.407Z,2.70
2023-02-01T05:05:29.357Z,1.63
2023-02-01T05:06:31.872Z,1.95
2023-02-01T05:07:34.524Z,2.38
2023-02-01T05:08:38.826Z,1.98
2023-02-01T05:09:41.714Z,2.58
2023-02-01T05:10:46.293Z,1.58
2023-02-01T05:12:07.884Z,2.45
2023-02-01T05:13:30.104Z,1.80
2023-02-01T05:14:33.090Z,2.45
2023-02-01T05:15:35.863Z,2.38
2023-02-01T05:16:38.850Z,1.77
2023-02-01T05:17:41.852Z,0.98
2023-02-01T05:18:45.093Z,2.10
2023-02-01T05:19:48.337Z,2.60
2023-02-01T05:20:51.696Z,3.08
2023-02-01T05:21:54.814Z,2.40
2023-02-01T05:22:57.935Z,1.92
2023-02-01T05:24:20.984Z,2.15
2023-02-01T05:25:24.109Z,2.08
2023-02-01T05:26:27.590Z,2.10
2023-02-01T05:27:32.147Z,2.20
2023-02-01T05:28:35.265Z,2.25
2023-02-01T05:29:38.389Z,2.70
2023-02-01T05:30:42.426Z,2.30
2023-02-01T05:31:47.638Z,2.63
2023-02-01T05:32:52.687Z,2.72
2023-02-01T05:33:56.273Z,2.10
2023-02-01T05:34:59.402Z,3.53
2023-02-01T05:36:02.522Z,2.33
2023-02-01T05:37:05.878Z,2.35
2023-02-01T05:38:09.000Z,2.38
2023-02-01T05:39:12.128Z,3.10
2023-02-01T05:40:15.368Z,2.83
2023-02-01T05:41:18.495Z,3.45
2023-02-01T05:42:21.727Z,2.85
2023-02-01T05:43:24.971Z,1.98
2023-02-01T05:44:28.092Z,4.28
2023-02-01T05:45:31.457Z,3.00
2023-02-01T05:46:35.938Z,3.10
2023-02-01T05:47:39.256Z,3.05
2023-02-01T05:48:43.824Z,3.60
2023-02-01T05:49:47.058Z,2.42
2023-02-01T05:50:50.304Z,2.45
2023-02-01T05:51:53.548Z,3.42
2023-02-01T05:52:56.782Z,2.80
2023-02-01T05:53:59.676Z,2.35
2023-02-01T05:55:02.432Z,2.70
2023-02-01T05:56:06.036Z,2.50
2023-02-01T05:57:09.031Z,2.28
2023-02-01T05:58:13.472Z,3.30
2023-02-01T05:59:16.475Z,2.75
2023-02-01T06:00:21.407Z,2.63
2023-02-01T06:01:25.000Z,4.00
2023-02-01T06:02:27.777Z,2.30
2023-02-01T06:03:31.044Z,3.50
2023-02-01T06:04:33.705Z,2.42
2023-02-01T06:05:36.457Z,3.70
2023-02-01T06:06:39.097Z,1.90
2023-02-01T06:07:42.220Z,3.08
2023-02-01T06:08:44.935Z,2.35
2023-02-01T06:09:47.622Z,2.25
2023-02-01T06:10:50.343Z,2.03
2023-02-01T06:11:52.857Z,3.13
2023-02-01T06:12:55.546Z,3.05
2023-02-01T06:13:58.059Z,3.00
2023-02-01T06:15:00.547Z,2.10
2023-02-01T06:16:04.615Z,2.20
2023-02-01T06:17:08.032Z,1.70
2023-02-01T06:18:11.020Z,1.10
2023-02-01T06:19:14.146Z,3.15
2023-02-01T06:20:17.400Z,1.13
2023-02-01T06:21:25.005Z,1.00
2023-02-01T06:22:28.644Z,1.63
2023-02-01T06:23:31.904Z,1.55
2023-02-01T06:24:34.550Z,2.10
2023-02-01T06:25:38.748Z,1.92
2023-02-01T06:26:41.504Z,1.45
2023-02-01T06:27:45.831Z,1.88
2023-02-01T06:28:48.444Z,1.98
2023-02-01T06:29:50.995Z,1.58
2023-02-01T06:30:55.361Z,2.60
2023-02-01T06:31:58.349Z,2.08
2023-02-01T06:33:00.930Z,1.45
2023-02-01T06:34:04.075Z,2.10
2023-02-01T06:35:08.773Z,2.97
2023-02-01T06:36:13.497Z,2.70
2023-02-01T06:37:16.085Z,1.65
2023-02-01T06:38:19.797Z,3.58
2023-02-01T06:39:22.556Z,2.80
2023-02-01T06:40:25.345Z,3.63
2023-02-01T06:41:29.623Z,4.50
2023-02-01T06:42:32.403Z,2.92
2023-02-01T06:43:35.173Z,2.60
2023-02-01T06:44:37.688Z,3.30
2023-02-01T06:45:40.211Z,2.83
2023-02-01T06:46:42.780Z,3.40
2023-02-01T06:47:45.483Z,3.85
2023-02-01T06:48:48.123Z,3.83
2023-02-01T06:49:50.643Z,2.70
2023-02-01T06:50:53.169Z,1.45
2023-02-01T06:51:55.692Z,2.35
2023-02-01T06:52:58.206Z,2.17
2023-02-01T06:54:01.932Z,3.65
2023-02-01T06:55:04.692Z,2.28
2023-02-01T06:56:07.459Z,3.03
2023-02-01T06:57:09.977Z,2.38
2023-02-01T06:58:12.515Z,2.70
2023-02-01T06:59:17.193Z,3.15
2023-02-01T07:00:20.187Z,2.83
2023-02-01T07:01:22.952Z,2.85
2023-02-01T07:02:25.689Z,2.75
2023-02-01T07:03:28.221Z,3.35
2023-02-01T07:04:31.341Z,2.83
2023-02-01T07:05:33.864Z,3.25
2023-02-01T07:06:36.384Z,2.80
2023-02-01T07:07:38.906Z,2.47
2023-02-01T07:08:41.440Z,3.35
2023-02-01T07:09:44.069Z,2.13
2023-02-01T07:10:46.713Z,3.00
2023-02-01T07:11:49.592Z,1.95
2023-02-01T07:12:52.234Z,3.08
2023-02-01T07:13:55.129Z,3.28
2023-02-01T07:14:58.003Z,4.38
2023-02-01T07:16:02.958Z,2.60
2023-02-01T07:17:05.926Z,2.08
2023-02-01T07:18:08.922Z,3.58
2023-02-01T07:19:11.962Z,2.75
2023-02-01T07:20:15.070Z,2.30
2023-02-01T07:21:18.298Z,2.30
2023-02-01T07:22:21.416Z,2.22
2023-02-01T07:23:25.140Z,2.13
2023-02-01T07:24:28.189Z,2.38
2023-02-01T07:25:31.255Z,2.42
2023-02-01T07:26:34.396Z,3.78
2023-02-01T07:27:38.227Z,2.83
2023-02-01T07:28:42.060Z,2.13
2023-02-01T07:29:45.184Z,2.70
2023-02-01T07:30:52.305Z,3.22
2023-02-01T07:31:55.511Z,3.28
2023-02-01T07:33:02.380Z,3.45
2023-02-01T07:34:05.830Z,2.55
2023-02-01T07:35:09.311Z,3.78
2023-02-01T07:36:17.845Z,2.67
2023-02-01T07:37:20.956Z,3.13
2023-02-01T07:38:25.156Z,3.42
2023-02-01T07:39:33.317Z,2.85
2023-02-01T07:40:36.443Z,3.00
2023-02-01T07:41:39.579Z,2.13
2023-02-01T07:42:42.687Z,2.15
2023-02-01T07:43:46.524Z,2.50
2023-02-01T07:44:49.646Z,1.80
2023-02-01T07:45:54.142Z,2.50
2023-02-01T07:46:57.214Z,1.92
2023-02-01T07:48:00.341Z,1.95
2023-02-01T07:49:03.694Z,2.25
2023-02-01T07:50:07.296Z,2.15
2023-02-01T07:51:14.019Z,2.47
2023-02-01T07:52:17.381Z,2.53
2023-02-01T07:53:20.864Z,1.75
2023-02-01T07:54:24.222Z,2.88
2023-02-01T07:55:27.587Z,2.38
2023-02-01T07:56:30.947Z,2.40
2023-02-01T07:57:33.949Z,2.60
2023-02-01T07:58:36.953Z,3.70
2023-02-01T08:00:00.117Z,2.42
2023-02-01T08:01:21.550Z,3.72
2023-02-01T08:02:24.494Z,1.65
2023-02-01T08:03:26.998Z,1.33
2023-02-01T08:04:30.293Z,3.28
2023-02-01T08:05:32.893Z,2.13
2023-02-01T08:06:35.801Z,2.00
2023-02-01T08:07:38.528Z,3.97
2023-02-01T08:08:41.357Z,2.20
2023-02-01T08:09:44.097Z,2.95
2023-02-01T08:10:46.809Z,2.72
2023-02-01T08:11:49.810Z,2.15
2023-02-01T08:12:53.104Z,3.33
2023-02-01T08:13:56.054Z,2.97
2023-02-01T08:14:58.859Z,2.33
2023-02-01T08:16:02.820Z,1.75
2023-02-01T08:17:05.352Z,1.88
2023-02-01T08:18:07.990Z,3.50
2023-02-01T08:19:10.530Z,1.60
2023-02-01T08:20:14.786Z,2.38
2023-02-01T08:21:26.252Z,1.92
2023-02-01T08:22:33.474Z,2.92
2023-02-01T08:23:37.637Z,1.88
2023-02-01T08:24:41.591Z,2.45
2023-02-01T08:25:45.427Z,2.55
2023-02-01T08:26:48.107Z,2.20
2023-02-01T08:27:51.406Z,2.28
2023-02-01T08:29:01.871Z,2.75
2023-02-01T08:30:05.956Z,2.40
2023-02-01T08:31:11.199Z,2.75
2023-02-01T08:32:13.846Z,3.08
2023-02-01T08:33:16.535Z,1.88
2023-02-01T08:34:19.373Z,3.53
2023-02-01T08:35:25.756Z,2.60
2023-02-01T08:36:33.942Z,2.40
2023-02-01T08:37:36.559Z,3.17
2023-02-01T08:38:40.760Z,2.30
2023-02-01T08:39:47.653Z,3.67
2023-02-01T08:40:50.461Z,1.40
2023-02-01T08:42:11.842Z,2.45
2023-02-01T08:43:15.447Z,1.90
2023-02-01T08:44:17.960Z,2.35
2023-02-01T08:45:24.967Z,2.13
2023-02-01T08:46:27.785Z,2.15
2023-02-01T08:47:30.445Z,3.90
2023-02-01T08:48:34.644Z,2.45
2023-02-01T08:49:37.164Z,3.05
2023-02-01T08:50:39.697Z,2.53
2023-02-01T08:51:42.329Z,2.58
2023-02-01T08:52:44.980Z,1.98
2023-02-01T08:53:47.739Z,2.58
2023-02-01T08:54:50.375Z,2.35
2023-02-01T08:55:52.891Z,1.95
2023-02-01T08:56:56.167Z,2.67
2023-02-01T08:57:58.771Z,2.10
2023-02-01T08:59:01.317Z,2.65
2023-02-01T09:00:05.996Z,2.25
2023-02-01T09:01:12.793Z,2.33
2023-02-01T09:02:17.851Z,1.90
2023-02-01T09:03:20.617Z,2.40
2023-02-01T09:04:23.209Z,2.50
2023-02-01T09:05:35.046Z,2.55
2023-02-01T09:07:09.465Z,2.10
2023-02-01T09:08:16.188Z,1.80
2023-02-01T09:09:18.704Z,1.98
2023-02-01T09:10:34.296Z,2.10
2023-02-01T09:11:37.314Z,3.05
2023-02-01T09:12:39.954Z,3.30
2023-02-01T09:13:42.847Z,2.78
2023-02-01T09:14:45.520Z,1.83
2023-02-01T09:15:48.167Z,2.38
2023-02-01T09:16:51.150Z,1.75
2023-02-01T09:17:54.005Z,2.30
2023-02-01T09:19:22.153Z,2.92
2023-02-01T09:20:21.404Z,2.97
2023-02-01T09:21:24.374Z,2.53
2023-02-01T09:22:27.378Z,1.40
2023-02-01T09:23:30.129Z,2.55
2023-02-01T09:24:32.902Z,2.15
2023-02-01T09:25:36.041Z,2.17
2023-02-01T09:26:39.287Z,1.92
2023-02-01T09:27:42.374Z,2.03
2023-02-01T09:28:45.507Z,2.97
2023-02-01T09:29:53.731Z,3.50
2023-02-01T09:30:59.008Z,2.63
2023-02-01T09:32:04.423Z,3.38
2023-02-01T09:33:07.848Z,2.42
2023-02-01T09:34:10.950Z,2.53
2023-02-01T09:35:14.073Z,1.90
2023-02-01T09:36:17.189Z,3.90
2023-02-01T09:37:21.154Z,1.83
2023-02-01T09:38:24.273Z,2.15
2023-02-01T09:39:27.516Z,3.30
2023-02-01T09:40:30.637Z,2.20
2023-02-01T09:41:48.421Z,1.58
2023-02-01T09:43:14.921Z,1.80
2023-02-01T09:44:43.817Z,1.88
2023-02-01T09:46:21.596Z,2.63
2023-02-01T09:47:26.690Z,1.98
2023-02-01T09:48:34.510Z,2.20
2023-02-01T09:49:46.612Z,2.83
2023-02-01T09:50:56.581Z,2.88
2023-02-01T09:52:03.535Z,3.58
2023-02-01T09:53:17.461Z,2.80
2023-02-01T09:54:25.501Z,2.25
2023-02-01T09:55:31.739Z,3.92
2023-02-01T09:57:02.103Z,3.75
2023-02-01T09:58:26.345Z,2.13
2023-02-01T09:59:47.947Z,2.08
2023-02-01T10:01:00.441Z,2.10
2023-02-01T10:02:06.674Z,2.45
2023-02-01T10:03:14.529Z,2.13
2023-02-01T10:04:19.038Z,2.85
2023-02-01T10:05:46.642Z,2.83
2023-02-01T10:07:01.424Z,2.38
2023-02-01T10:08:32.006Z,2.60
2023-02-01T10:09:56.419Z,3.72
2023-02-01T10:11:25.170Z,2.20
2023-02-01T10:12:46.898Z,2.05
2023-02-01T10:14:20.901Z,2.13
2023-02-01T10:15:31.940Z,2.25
2023-02-01T10:16:52.958Z,1.92
2023-02-01T10:18:20.018Z,1.52
2023-02-01T10:19:30.742Z,2.67
2023-02-01T10:21:10.827Z,2.33
2023-02-01T10:22:34.229Z,2.22
2023-02-01T10:24:17.413Z,1.88
2023-02-01T10:25:32.675Z,3.05
2023-02-01T10:26:43.676Z,3.08
2023-02-01T10:27:47.637Z,2.33
2023-02-01T10:28:59.431Z,2.78
2023-02-01T10:30:15.597Z,2.78
2023-02-01T10:31:18.866Z,3.28
2023-02-01T10:32:25.801Z,3.25
2023-02-01T10:33:35.433Z,2.25
2023-02-01T10:34:37.959Z,2.03
2023-02-01T10:35:42.779Z,2.30
2023-02-01T10:36:55.717Z,2.30
2023-02-01T10:38:21.994Z,3.17
2023-02-01T10:39:24.914Z,2.83
2023-02-01T10:40:27.999Z,2.35
2023-02-01T10:41:40.353Z,2.05
2023-02-01T10:42:42.999Z,2.85
2023-02-01T10:43:49.291Z,2.40
2023-02-01T10:44:52.240Z,2.83
2023-02-01T10:45:54.761Z,2.85
2023-02-01T10:46:57.401Z,2.90
2023-02-01T10:48:02.188Z,2.42
2023-02-01T10:49:07.610Z,1.90
2023-02-01T10:50:37.379Z,1.95
2023-02-01T10:52:13.848Z,3.17
2023-02-01T10:53:25.250Z,2.00
2023-02-01T10:54:39.442Z,3.00
2023-02-01T10:55:54.166Z,3.22
2023-02-01T10:56:56.826Z,2.55
2023-02-01T10:58:05.097Z,3.20
2023-02-01T10:59:17.951Z,1.65
2023-02-01T11:00:24.485Z,2.33
2023-02-01T11:01:35.248Z,2.53
2023-02-01T11:02:38.047Z,2.20
2023-02-01T11:03:53.692Z,2.28
2023-02-01T11:05:26.583Z,4.53
2023-02-01T11:06:44.702Z,2.70
2023-02-01T11:07:51.074Z,2.55
2023-02-01T11:08:58.979Z,1.63
2023-02-01T11:10:02.993Z,2.63
2023-02-01T11:11:07.388Z,2.15
2023-02-01T11:12:37.164Z,2.55
2023-02-01T11:13:41.471Z,3.08
2023-02-01T11:14:44.114Z,1.58
2023-02-01T11:15:48.119Z,2.08
2023-02-01T11:16:56.122Z,3.17
2023-02-01T11:18:16.886Z,1.90
2023-02-01T11:19:19.639Z,1.73
2023-02-01T11:20:42.206Z,1.55
2023-02-01T11:21:48.933Z,2.33
2023-02-01T11:22:57.087Z,1.35
2023-02-01T11:24:05.493Z,1.77
2023-02-01T11:25:11.620Z,1.70
2023-02-01T11:26:24.840Z,1.30
2023-02-01T11:27:28.536Z,1.13
2023-02-01T11:28:34.896Z,2.97
2023-02-01T11:29:41.629Z,2.88
2023-02-01T11:30:47.280Z,1.63
2023-02-01T11:31:52.141Z,1.92
2023-02-01T11:32:55.660Z,1.60
2023-02-01T11:34:10.433Z,2.65
2023-02-01T11:35:20.048Z,1.90
2023-02-01T11:36:28.673Z,2.17
2023-02-01T11:37:41.420Z,2.00
2023-02-01T11:39:10.669Z,1.42
2023-02-01T11:40:19.807Z,1.60
2023-02-01T11:41:25.913Z,1.67
2023-02-01T11:42:30.120Z,2.38
2023-02-01T11:43:33.240Z,2.13
2023-02-01T11:44:39.118Z,2.17
2023-02-01T11:45:42.244Z,1.92
2023-02-01T11:46:45.627Z,1.70
2023-02-01T11:47:54.009Z,1.42
2023-02-01T11:48:59.163Z,2.00
2023-02-01T11:50:13.927Z,3.25
2023-02-01T11:51:24.609Z,1.63
2023-02-01T11:52:49.328Z,1.90
2023-02-01T11:54:12.919Z,1.90
2023-02-01T11:55:24.014Z,1.35
2023-02-01T11:56:35.057Z,4.05
2023-02-01T11:57:56.206Z,1.45
2023-02-01T11:59:14.784Z,0.80
2023-02-01T12:00:38.549Z,0.20
2023-02-01T12:01:56.924Z,0.68
2023-02-01T12:03:36.929Z,0.17
2023-02-01T12:04:48.513Z,0.40
2023-02-01T12:06:01.479Z,0.30
2023-02-01T12:07:23.916Z,0.98
2023-02-01T12:09:05.680Z,0.10
2023-02-01T12:10:18.766Z,0.10
2023-02-01T12:11:33.405Z,0.22
2023-02-01T12:12:43.010Z,0.08
2023-02-01T12:14:13.913Z,1.23
2023-02-01T12:15:49.054Z,0.20
2023-02-01T12:16:53.493Z,0.40
2023-02-01T12:18:24.712Z,0.30
2023-02-01T12:20:54.683Z,0.52
2023-02-01T12:22:21.329Z,0.10
2023-02-01T12:23:47.496Z,0.30
2023-02-01T12:25:10.764Z,0.10
2023-02-01T12:26:32.021Z,0.00
2023-02-01T12:27:57.931Z,0.10
2023-02-01T12:29:21.629Z,0.10
2023-02-01T12:30:59.421Z,0.05
2023-02-01T12:32:27.256Z,0.20
2023-02-01T12:33:54.106Z,0.00
2023-02-01T12:35:09.835Z,0.10
2023-02-01T12:36:29.163Z,0.10
2023-02-01T12:38:09.627Z,0.00
2023-02-01T12:39:34.313Z,0.17
2023-02-01T12:40:54.129Z,0.10
2023-02-01T12:42:00.261Z,0.20
2023-02-01T12:43:12.979Z,0.15
2023-02-01T12:44:26.056Z,0.32
2023-02-01T12:45:41.913Z,0.57
2023-02-01T12:47:03.272Z,0.30
2023-02-01T12:48:29.534Z,0.15
2023-02-01T12:49:48.385Z,0.30
2023-02-01T12:51:09.765Z,0.15
2023-02-01T12:52:29.101Z,0.20
2023-02-01T12:54:04.566Z,0.32
2023-02-01T12:55:32.660Z,0.30
2023-02-01T12:56:52.237Z,0.10
2023-02-01T12:58:23.175Z,0.40
2023-02-01T12:59:35.245Z,0.20
2023-02-01T13:01:10.129Z,0.15
2023-02-01T13:02:59.056Z,0.10
2023-02-01T13:04:13.571Z,0.47
2023-02-01T13:05:20.310Z,0.40
2023-02-01T13:06:29.777Z,0.88
2023-02-01T13:07:44.775Z,0.20
2023-02-01T13:08:50.421Z,0.63
2023-02-01T13:10:12.632Z,0.98
2023-02-01T13:11:39.382Z,0.38
2023-02-01T13:12:50.067Z,0.20
2023-02-01T13:14:17.215Z,0.32
2023-02-01T13:15:39.270Z,0.47
2023-02-01T13:16:48.674Z,0.40
2023-02-01T13:17:54.766Z,0.88
2023-02-01T13:19:20.314Z,0.10
2023-02-01T13:20:30.999Z,0.40
2023-02-01T13:21:37.963Z,0.20
2023-02-01T13:22:44.725Z,0.43
2023-02-01T13:23:50.080Z,0.40
2023-02-01T13:24:58.020Z,0.30
2023-02-01T13:26:00.764Z,0.63
2023-02-01T13:27:03.648Z,0.80
2023-02-01T13:28:13.128Z,0.50
2023-02-01T13:29:18.070Z,0.52
2023-02-01T13:30:41.282Z,0.40
2023-02-01T13:32:06.427Z,0.70
2023-02-01T13:33:52.683Z,0.80
2023-02-01T13:35:46.740Z,0.70
2023-02-01T13:37:03.185Z,0.70
2023-02-01T13:38:30.800Z,0.70
2023-02-01T13:39:52.392Z,1.25
2023-02-01T13:41:25.629Z,0.73
2023-02-01T13:42:51.192Z,0.93
2023-02-01T13:43:59.954Z,0.50
2023-02-01T13:45:16.761Z,1.70
2023-02-01T13:46:20.750Z,0.77
2023-02-01T13:47:32.961Z,0.68
2023-02-01T13:48:52.881Z,0.85
2023-02-01T13:50:18.565Z,1.30
2023-02-01T13:51:34.291Z,0.70
2023-02-01T13:52:44.727Z,1.65
2023-02-01T13:53:50.370Z,3.20
2023-02-01T13:55:23.815Z,1.30
2023-02-01T13:56:28.177Z,2.28
2023-02-01T13:57:41.983Z,2.35
2023-02-01T13:58:47.025Z,1.15
2023-02-01T13:59:52.669Z,1.65
2023-02-01T14:01:25.009Z,1.95
2023-02-01T14:02:40.427Z,0.98
2023-02-01T14:03:49.188Z,1.73
2023-02-01T14:04:52.561Z,3.35
2023-02-01T14:05:57.951Z,1.90
2023-02-01T14:07:00.722Z,2.80
2023-02-01T14:08:14.640Z,2.63
2023-02-01T14:09:33.722Z,1.50
2023-02-01T14:10:58.198Z,2.90
2023-02-01T14:12:50.069Z,1.50
2023-02-01T14:13:52.803Z,2.47
2023-02-01T14:15:26.378Z,3.10
2023-02-01T14:16:29.167Z,1.25
2023-02-01T14:17:35.260Z,2.80
2023-02-01T14:18:38.377Z,3.15
2023-02-01T14:19:41.174Z,5.00
2023-02-01T14:20:47.343Z,2.10
2023-02-01T14:22:02.237Z,3.75
2023-02-01T14:23:10.289Z,4.32
2023-02-01T14:24:21.903Z,3.92
2023-02-01T14:25:24.917Z,1.95
2023-02-01T14:26:46.663Z,2.15
2023-02-01T14:27:49.468Z,2.65
2023-02-01T14:29:21.784Z,3.88
2023-02-01T14:30:25.204Z,4.22
2023-02-01T14:32:00.826Z,3.13
2023-02-01T14:33:19.838Z,2.05
2023-02-01T14:34:32.319Z,2.40
2023-02-01T14:35:34.874Z,3.17
2023-02-01T14:36:45.207Z,1.85
2023-02-01T14:37:53.115Z,2.70
2023-02-01T14:38:55.752Z,2.28
2023-02-01T14:40:27.683Z,3.65
2023-02-01T14:41:34.036Z,2.30
2023-02-01T14:42:42.673Z,4.03
2023-02-01T14:44:12.914Z,2.42
2023-02-01T14:45:21.659Z,2.47
2023-02-01T14:47:02.949Z,2.90
2023-02-01T14:48:08.275Z,2.53
2023-02-01T14:49:12.086Z,3.72
2023-02-01T14:50:33.459Z,3.35
2023-02-01T14:51:36.201Z,2.08
2023-02-01T14:53:07.171Z,1.58
2023-02-01T14:54:15.337Z,4.20
2023-02-01T14:55:34.773Z,2.97
2023-02-01T14:56:37.403Z,3.08
2023-02-01T14:57:43.405Z,6.57
2023-02-01T14:59:11.102Z,5.22
2023-02-01T15:00:24.454Z,4.38
2023-02-01T15:01:35.916Z,3.35
2023-02-01T15:02:40.820Z,2.53
2023-02-01T15:03:57.097Z,2.65
2023-02-01T15:04:59.729Z,2.78
2023-02-01T15:06:02.734Z,2.72
2023-02-01T15:07:13.186Z,2.63
2023-02-01T15:08:22.551Z,3.05
2023-02-01T15:09:37.536Z,2.78
2023-02-01T15:10:47.017Z,2.83
2023-02-01T15:12:01.425Z,3.03
2023-02-01T15:13:06.583Z,2.92
2023-02-01T15:14:15.821Z,2.65
2023-02-01T15:15:20.924Z,2.20
2023-02-01T15:16:26.395Z,5.18
2023-02-01T15:17:35.055Z,2.90
2023-02-01T15:18:38.636Z,2.17
2023-02-01T15:19:54.593Z,3.47
2023-02-01T15:21:06.798Z,2.65
2023-02-01T15:22:22.315Z,2.90
2023-02-01T15:23:25.205Z,2.85